x

Jamestown, Va (44041) Weather Station

11:40pm - Sun 24th May 2015 All times are EDT. -4 hours from GMT.

  • Wind
    11mph, 13mph gusts
  • Air Temp 69°f
  • Sea Pressure 1025.6mb
  • Jamestown, Va
  • Jamestown, Va

More Historic Weather Station data

Upgrade to MSW Pro to gain access to the past 30 days of data for over 8000 Wavebouys and Weather Stations around the globe.

Join Pro

Comparision Forecast

View Surf forecast
   
Sun 05/24 11:40pm 11 13 mph 1025.6mb - 69f
11:30pm 11 13 mph 1025.8mb - 70f
11:20pm 11 13 mph 1025.8mb - 70f
11:10pm 11 13 mph 1025.8mb - 71f
11:00pm 11 13 mph 1025.8mb 74f 71f
10:50pm 13 16 mph 1025.7mb - 71f
10:40pm 13 16 mph 1025.7mb - 71f
10:30pm 13 16 mph 1025.6mb - 72f
10:20pm 11 13 mph 1025.6mb - 72f
10:10pm 11 13 mph 1025.5mb - 72f
10:00pm 13 16 mph 1025.5mb 74f 73f
9:50pm 11 16 mph 1025.4mb - 73f
9:40pm 9 11 mph 1025.3mb - 73f
9:30pm 9
mph
1025.1mb - 73f
9:20pm 7 9 mph 1025mb - 73f
9:10pm 4 7 mph 1025mb - 74f
9:00pm 4 7 mph 1024.9mb 75f 74f
8:50pm 4
mph
1024.9mb - 74f
8:40pm 4
mph
1024.8mb - 74f
8:30pm 4
mph
1024.8mb - 75f
8:20pm 4 7 mph 1024.8mb - 75f
8:10pm 4 7 mph 1024.8mb - 76f
8:00pm 4 7 mph 1024.9mb 74f 77f
7:50pm 7
mph
1024.9mb - 77f
7:40pm 7 9 mph 1024.8mb - 78f
7:30pm 7 11 mph 1024.7mb - 78f
7:20pm 7 9 mph 1024.8mb - 78f
7:10pm 9 11 mph 1024.8mb - 78f
7:00pm 9 11 mph 1024.7mb - 78f
6:50pm 7 11 mph 1024.7mb - 78f
6:40pm 9 11 mph 1024.7mb - 78f
6:30pm 9 13 mph 1024.6mb - 79f
6:20pm 9 13 mph 1024.6mb - 79f
6:10pm 7 11 mph 1024.6mb - 78f
6:00pm 9 11 mph 1024.5mb 74f 79f
5:50pm 9 13 mph 1024.6mb - 79f
5:40pm 7 9 mph 1024.8mb - 79f
5:30pm 9 13 mph 1024.8mb - 78f
4:20pm 9 11 mph 1025.4mb - 78f
4:10pm 9 11 mph 1025.6mb - 78f
4:00pm 9 11 mph 1025.7mb 75f 78f
3:50pm 7 11 mph 1025.8mb - 78f
3:40pm 7 11 mph 1026mb - 78f
3:30pm 9 11 mph 1026.1mb - 78f
3:20pm 7 11 mph 1026.2mb - 78f
3:10pm 7 13 mph 1026.3mb - 78f
3:00pm 9 11 mph 1026.4mb 74f 77f
2:50pm 7 11 mph 1026.5mb - 77f
2:40pm 7 11 mph 1026.7mb - 77f
2:30pm 7 9 mph 1026.8mb - 77f
2:20pm 4 9 mph 1027mb - 77f
2:10pm 7 11 mph 1027.1mb - 76f
2:00pm 4 9 mph 1027.3mb 74f 76f
1:50pm 7 9 mph 1027.4mb - 76f
1:40pm 9 11 mph 1027.4mb - 75f
1:30pm 4 7 mph 1027.5mb - 74f
1:20pm 2 7 mph 1027.5mb - 74f
1:10pm 4
mph
1027.6mb - 73f
1:00pm 2 4 mph 1027.7mb 73f 73f
12:50pm 2 4 mph 1027.8mb - 73f
12:40pm 4 7 mph 1028mb - 73f
12:30pm 4 7 mph 1028mb - 72f
12:20pm 4
mph
1028.1mb - 72f
12:10pm 4 9 mph 1028.2mb - 72f
12:00pm 4 7 mph 1028.3mb 73f 71f
11:50am 4
mph
1028.4mb - 71f
11:40am 4
mph
1028.5mb - 71f
11:30am 4 7 mph 1028.5mb - 71f
11:20am 4
mph
1028.7mb - 71f
11:10am 4 7 mph 1028.7mb - 70f
11:00am 4 7 mph 1028.8mb 73f 70f
10:50am 7 11 mph 1028.8mb - 69f
10:40am 7 11 mph 1028.9mb - 69f
10:30am 7 11 mph 1029.1mb - 69f
10:20am 4 9 mph 1029.4mb - 68f
10:10am 7 9 mph 1029.5mb - 67f
10:00am 2 7 mph 1029.5mb 73f 67f
9:50am 4 9 mph 1029.6mb - 67f
9:40am 4 9 mph 1029.7mb - 66f
9:30am 4 7 mph 1029.7mb - 65f
9:20am 4 7 mph 1029.7mb - 64f
9:10am 7 9 mph 1029.7mb - 64f
9:00am 4 9 mph 1029.6mb 72f 63f
8:50am 4 7 mph 1029.5mb - 62f
8:40am 4 9 mph 1029.5mb - 62f
8:30am 7 9 mph 1029.4mb - 62f
8:20am 7 9 mph 1029.4mb - 62f
8:10am 7 11 mph 1029.3mb - 61f
8:00am 7 9 mph 1029.3mb 73f 60f
7:50am 7 9 mph 1029.3mb - 60f
7:40am 7 9 mph 1029.3mb - 59f
7:30am 7 9 mph 1029.2mb - 59f
7:20am 7 9 mph 1029.2mb - 59f
7:10am 9 11 mph 1029.1mb - 59f
7:00am 7 9 mph 1029.1mb 73f 59f
6:50am 7 9 mph 1029mb - 59f
6:40am 4 7 mph 1028.9mb - 58f
6:30am 7
mph
1028.9mb - 58f
5:20am 9 11 mph 1028.2mb - 60f
5:10am 9 11 mph 1028.2mb - 60f
5:00am 9 11 mph 1028.2mb 73f 60f
4:50am 9 11 mph 1028.2mb - 60f
4:40am 9 11 mph 1028.2mb - 60f
4:30am 9 13 mph 1028.2mb - 60f
4:20am 9 11 mph 1028.2mb - 60f
4:10am 11 13 mph 1028.1mb - 60f
4:00am 11 13 mph 1028.2mb 73f 60f
3:50am 11 13 mph 1028.2mb - 60f
3:40am 11 13 mph 1028.2mb - 60f
3:30am 11 13 mph 1028.3mb - 60f
3:20am 9 11 mph 1028.4mb - 60f
3:10am 9 13 mph 1028.4mb - 60f
3:00am 7 11 mph 1028.4mb 73f 60f
2:50am 9 11 mph 1028.3mb - 60f
2:40am 7 11 mph 1028.3mb - 60f
2:30am 7 11 mph 1028.4mb - 60f
2:20am 9 11 mph 1028.3mb - 60f
2:10am 9 11 mph 1028.3mb - 60f
2:00am 9 11 mph 1028.3mb 73f 60f
1:50am 9 11 mph 1028.3mb - 60f
1:40am 9 13 mph 1028.3mb - 60f
1:30am 11 13 mph 1028.4mb - 60f
1:20am 11 13 mph 1028.5mb - 60f
1:10am 11 16 mph 1028.6mb - 61f
1:00am 11 16 mph 1028.7mb 73f 61f
12:50am 11 13 mph 1028.8mb - 62f
12:40am 11 13 mph 1028.8mb - 62f
12:30am 11 13 mph 1028.8mb - 62f
12:20am 11 13 mph 1028.8mb - 62f
12:10am 11 13 mph 1028.8mb - 63f
12:00am 11 13 mph 1028.9mb 73f 63f
Sat 05/23 11:50pm 11 13 mph 1028.9mb - 63f
11:40pm 11 16 mph 1028.9mb - 63f
11:30pm 11 16 mph 1028.8mb - 64f
11:20pm 13 16 mph 1028.9mb - 64f
11:10pm 13 16 mph 1029mb - 64f
11:00pm 13 16 mph 1029mb 74f 64f
10:50pm 11 16 mph 1029.1mb - 65f
10:40pm 11 13 mph 1029mb - 65f
10:30pm 9 13 mph 1028.8mb - 65f
10:20pm 9 11 mph 1028.7mb - 65f
10:10pm 9
mph
1028.7mb - 65f
10:00pm 7 9 mph 1028.6mb 74f 65f
9:50pm 7 11 mph 1028.5mb - 65f
9:40pm 9 11 mph 1028.5mb - 65f
9:30pm 9 11 mph 1028.5mb - 65f
9:20pm 9 11 mph 1028.3mb - 65f
9:10pm 9 11 mph 1028.3mb - 65f
9:00pm 7 9 mph 1028mb 74f 65f
8:50pm 7 11 mph 1027.8mb - 65f
8:40pm 7 11 mph 1027.9mb - 66f
8:30pm 7 9 mph 1028mb - 67f
8:20pm 7 9 mph 1028mb - 67f
8:10pm 7 9 mph 1028mb - 67f
8:00pm 7 9 mph 1028mb 74f 68f
7:50pm 7 9 mph 1028mb - 69f
7:40pm 9 11 mph 1028mb - 69f
7:30pm 7 9 mph 1028mb - 69f
7:20pm 7 9 mph 1028mb - 70f
7:10pm 7 9 mph 1027.9mb - 70f
7:00pm 7 9 mph 1027.9mb 74f 69f
6:50pm 9 11 mph 1027.9mb - 69f
6:40pm 9 11 mph 1027.8mb - 69f
6:30pm 9 11 mph 1027.7mb - 70f
6:20pm 9 11 mph 1027.8mb - 69f
6:10pm 11 13 mph 1027.9mb - 70f
6:00pm 11 13 mph 1028.2mb 75f 69f
5:50pm 9 11 mph 1028.3mb - 70f
5:40pm 9 11 mph 1028.3mb - 70f
5:30pm 7 11 mph 1028.3mb - 70f
5:20pm 7 13 mph 1028.4mb - 70f
5:10pm 4 9 mph 1028.5mb - 70f
5:00pm 4 7 mph 1028.5mb 76f 71f
4:50pm 2 4 mph 1028.6mb - 71f
4:40pm 2
mph
1028.6mb - 71f
4:30pm 2 4 mph 1028.7mb - 70f
4:20pm 2 4 mph 1028.7mb - 70f
4:10pm 2 7 mph 1028.8mb - 70f
4:00pm 2 4 mph 1028.8mb 78f 70f
3:50pm 2 4 mph 1028.9mb - 69f
3:40pm 4 7 mph 1029mb - 69f
3:30pm 4 7 mph 1029.1mb - 69f
3:20pm 4 7 mph 1029.2mb - 69f
3:10pm 4 7 mph 1029.3mb - 69f
3:00pm 4
mph
1029.5mb 77f 68f
1:50pm 7 9 mph 1029.9mb - 67f
1:40pm 7 9 mph 1030mb - 67f
1:30pm 7
mph
1030.1mb - 67f
1:20pm 4 7 mph 1030.2mb - 67f
1:10pm 4 9 mph 1030.2mb - 67f
1:00pm 2 7 mph 1030.3mb 74f 67f
12:50pm 2 7 mph 1030.3mb - 67f
12:40pm 4 9 mph 1030.4mb - 67f
12:30pm 4 7 mph 1030.4mb - 67f
12:20pm 4 9 mph 1030.5mb - 66f
12:10pm 7 11 mph 1030.5mb - 66f
12:00pm 4 9 mph 1030.5mb 73f 66f
11:50am 4 9 mph 1030.6mb - 66f
11:40am 7 11 mph 1030.5mb - 65f
11:30am 7 9 mph 1030.6mb - 65f
11:20am 4 9 mph 1030.5mb - 65f
11:10am 7 11 mph 1030.5mb - 65f
11:00am 7 11 mph 1030.5mb 73f 65f
10:50am 7 13 mph 1030.4mb - 64f
10:40am 9 11 mph 1030.4mb - 64f
10:30am 9 11 mph 1030.4mb - 64f
10:20am 7 13 mph 1030.4mb - 64f
10:10am 7 13 mph 1030.5mb - 64f
10:00am 7 9 mph 1030.5mb 73f 63f
9:50am 9 13 mph 1030.5mb - 63f
9:40am 7 11 mph 1030.4mb - 63f
9:30am 7 11 mph 1030.4mb - 63f
9:20am 7 11 mph 1030.3mb - 62f
9:10am 7 11 mph 1030.2mb - 62f
9:00am 7 11 mph 1030.1mb 73f 62f
8:50am 7 13 mph 1030mb - 62f
8:40am 7 11 mph 1029.8mb - 62f
8:30am 7 11 mph 1029.7mb - 61f
8:20am 7 9 mph 1029.5mb - 61f
8:10am 7 11 mph 1029.3mb - 61f
8:00am 7 9 mph 1029.2mb 72f 60f
7:50am 7 9 mph 1029mb - 60f
7:40am 4 7 mph 1028.9mb - 60f
7:30am 4 7 mph 1028.7mb - 60f
7:20am 4 7 mph 1028.6mb - 60f
7:10am 4
mph
1028.4mb - 60f
7:00am 2 4 mph 1028.3mb 73f 60f
6:50am 2 4 mph 1028.1mb - 59f
6:40am 4
mph
1027.9mb - 60f
6:30am 4 7 mph 1027.6mb - 60f
6:20am 4 7 mph 1027.3mb - 60f
6:10am 4 7 mph 1027.2mb - 60f
6:00am 4 7 mph 1027mb 73f 60f
5:50am 4 9 mph 1026.8mb - 60f
5:40am 2 7 mph 1026.4mb - 59f
5:30am 4 9 mph 1026.2mb - 59f
5:20am 7 11 mph 1026.1mb - 58f
5:10am 7 9 mph 1025.9mb - 58f
5:00am 7 9 mph 1025.7mb 74f 59f
4:50am 7 9 mph 1025.5mb - 59f
4:40am 7 9 mph 1025.3mb - 60f
4:30am 7 9 mph 1025.2mb - 60f
4:20am 9 11 mph 1024.9mb - 61f
4:10am 11 13 mph 1024.8mb - 62f
4:00am 11 13 mph 1024.6mb 74f 63f
3:50am 11 13 mph 1024.4mb - 63f
3:40am 9 11 mph 1024.2mb - 62f
3:30am 7 11 mph 1024.1mb - 61f
3:20am 7 9 mph 1024mb - 61f
3:10am 9 11 mph 1023.9mb - 61f
3:00am 4 9 mph 1023.7mb 73f 61f
2:50am 7 11 mph 1023.6mb - 61f
2:40am 9 11 mph 1023.6mb - 62f
2:30am 7 13 mph 1023.5mb - 63f
2:20am 4 9 mph 1023.5mb - 63f
2:10am 4 9 mph 1023.5mb - 62f
2:00am 7 9 mph 1023.4mb 73f 61f
1:50am 9 11 mph 1023.2mb - 62f
1:40am 9 11 mph 1023.1mb - 62f
1:30am 9 11 mph 1023.1mb - 62f
1:20am 9 11 mph 1023.2mb - 62f
1:10am 9 11 mph 1023.1mb - 62f
1:00am 9 11 mph 1023mb 73f 62f
12:50am 9 11 mph 1023mb - 63f
12:40am 9 13 mph 1023.1mb - 63f
12:30am 9 11 mph 1023.1mb - 64f
12:20am 11
mph
1023.1mb - 64f
12:10am 11 13 mph 1023mb - 64f
12:00am 9 11 mph 1023mb 73f 64f
Fri 05/22 11:50pm 9 11 mph 1023mb - 64f
11:40pm 9 11 mph 1022.9mb - 64f
11:30pm 9
mph
1022.9mb - 65f
11:20pm 7 9 mph 1022.9mb - 65f
11:10pm 7 9 mph 1022.7mb - 65f
11:00pm 7 9 mph 1022.7mb 73f 65f
10:50pm 7 9 mph 1022.6mb - 65f
10:40pm 7 9 mph 1022.5mb - 65f
10:30pm 7
mph
1022.3mb - 65f
10:20pm 7
mph
1022.2mb - 66f
10:10pm 7 9 mph 1022.1mb - 66f
10:00pm 7 9 mph 1022mb 74f 66f
9:50pm 7 9 mph 1021.9mb - 66f
9:40pm 7 9 mph 1021.8mb - 66f
9:30pm 7 9 mph 1021.7mb - 66f
9:20pm 7 9 mph 1021.5mb - 67f
9:10pm 7 9 mph 1021.4mb - 67f
9:00pm 7
mph
1021.3mb 74f 68f
8:50pm 7 9 mph 1021.1mb - 68f
8:40pm 7 9 mph 1021.1mb - 69f
8:30pm 7 9 mph 1021mb - 69f
8:20pm 7
mph
1020.9mb - 70f
8:10pm 7
mph
1020.9mb - 70f
8:00pm 7
mph
1020.8mb 74f 71f
7:50pm 7
mph
1020.7mb - 71f
7:40pm 7 9 mph 1020.6mb - 72f
7:30pm 7 9 mph 1020.5mb - 72f
7:20pm 9
mph
1020.5mb - 72f
7:10pm 7 9 mph 1020.3mb - 72f
7:00pm 9 11 mph 1020.2mb 74f 72f
6:50pm 9 11 mph 1020mb - 72f
6:40pm 7 9 mph 1020mb - 72f
6:30pm 7 9 mph 1020mb - 72f
6:20pm 9 11 mph 1019.9mb - 72f
6:10pm 9 11 mph 1019.9mb - 72f
6:00pm 9 11 mph 1019.9mb 75f 72f
5:50pm 9 11 mph 1019.8mb - 72f
5:40pm 9 11 mph 1019.9mb - 72f
5:30pm 9 11 mph 1019.9mb - 71f
5:20pm 9 13 mph 1019.9mb - 71f
5:10pm 11 13 mph 1019.8mb - 71f
5:00pm 11 16 mph 1019.8mb 75f 71f
4:50pm 11 13 mph 1019.8mb - 71f
4:40pm 9 13 mph 1019.8mb - 70f
4:30pm 11 16 mph 1019.7mb - 70f
4:20pm 11 16 mph 1019.8mb - 70f
4:10pm 11 16 mph 1019.8mb - 70f
4:00pm 11 13 mph 1019.8mb 75f 70f
3:50pm 11 16 mph 1019.9mb - 69f
3:40pm 11 13 mph 1020mb - 69f
3:30pm 11 16 mph 1020mb - 69f
3:20pm 13 16 mph 1020mb - 68f
3:10pm 11 16 mph 1020mb - 68f
3:00pm 11 16 mph 1020mb 74f 68f
2:50pm 13 16 mph 1020mb - 68f
2:40pm 11 13 mph 1020mb - 68f
2:30pm 11 16 mph 1019.9mb - 67f
2:20pm 11 16 mph 1019.9mb - 67f
2:10pm 9 16 mph 1020mb - 67f
2:00pm 11 13 mph 1019.9mb 74f 67f
1:50pm 9 13 mph 1020mb - 66f
1:40pm 9 11 mph 1019.9mb - 66f
1:20pm 7 11 mph 1019.9mb - 66f
1:10pm 7 11 mph 1019.9mb - 65f
1:00pm 7 11 mph 1019.9mb 74f 65f
12:50pm 9 13 mph 1019.8mb - 65f
12:40pm 9 11 mph 1019.8mb - 64f
12:30pm 9 13 mph 1019.8mb - 64f
12:20pm 7 11 mph 1019.8mb - 64f
12:10pm 11 13 mph 1019.8mb - 64f
12:00pm 9 16 mph 1019.9mb 74f 64f
11:50am 9 13 mph 1020mb - 64f
11:40am 11 16 mph 1020.1mb - 63f
11:30am 11 16 mph 1020mb - 63f
11:20am 11 18 mph 1019.9mb - 62f
11:10am 11 16 mph 1019.8mb - 62f
11:00am 13 18 mph 1019.6mb 74f 62f
10:50am 13 18 mph 1019.6mb - 62f
10:40am 16 20 mph 1019.6mb - 62f
10:30am 13 18 mph 1019.5mb - 61f
10:20am 13 20 mph 1019.4mb - 61f
10:10am 16 18 mph 1019.4mb - 61f
10:00am 13 20 mph 1019.4mb 74f 61f
9:50am 16 20 mph 1019.2mb - 61f
9:40am 13 20 mph 1019.2mb - 60f
9:20am 13 18 mph 1019.1mb - 59f
9:10am 13 16 mph 1019.1mb - 58f
9:00am 13 18 mph 1018.9mb 74f 58f
8:50am 13 18 mph 1018.8mb - 58f
8:40am 13 18 mph 1018.7mb - 58f
8:30am 13 20 mph 1018.6mb - 57f
8:20am 13 18 mph 1018.5mb - 57f
8:10am 13 18 mph 1018.4mb - 57f
8:00am 13 18 mph 1018.3mb 74f 56f
7:50am 16 20 mph 1018.1mb - 57f
7:40am 18 22 mph 1017.9mb - 56f
7:30am 16 20 mph 1017.7mb - 56f
7:20am 16 18 mph 1017.6mb - 56f
7:10am 13 18 mph 1017.5mb - 56f
7:00am 13 18 mph 1017.3mb 73f 56f
6:50am 16 20 mph 1017.1mb - 56f
6:40am 16 22 mph 1016.9mb - 56f
6:30am 16 20 mph 1016.8mb - 56f
6:20am 16 20 mph 1016.7mb - 56f
6:10am 16 18 mph 1016.6mb - 56f
6:00am 16 22 mph 1016.4mb 74f 56f
5:50am 16 20 mph 1016.2mb - 56f
5:40am 16 20 mph 1016mb - 56f
5:30am 16 20 mph 1015.8mb - 56f
5:20am 16 22 mph 1015.6mb - 56f
5:10am 16 22 mph 1015.7mb - 56f
5:00am 13 20 mph 1015.7mb 74f 56f
4:50am 13 18 mph 1015.5mb - 56f
4:40am 16 18 mph 1015.2mb - 56f
4:30am 16 20 mph 1015mb - 56f
4:20am 16 20 mph 1014.9mb - 56f
4:10am 16 20 mph 1014.7mb - 56f
4:00am 16 20 mph 1014.5mb 74f 56f
3:50am 16 20 mph 1014.4mb - 56f
3:40am 13 18 mph 1014.4mb - 55f
3:30am 11 16 mph 1014.2mb - 54f
3:20am 11 13 mph 1014.2mb - 54f
3:10am 9 13 mph 1014.1mb - 54f
3:00am 9 11 mph 1013.9mb 75f 55f
2:50am 11 16 mph 1013.8mb - 55f
2:40am 11 16 mph 1013.8mb - 55f
2:30am 13 18 mph 1013.8mb - 55f
2:20am 11 16 mph 1013.8mb - 55f
2:10am 9 13 mph 1013.8mb - 56f
2:00am 9 16 mph 1013.9mb 75f 55f
1:50am 9 16 mph 1013.9mb - 55f
1:40am 9 13 mph 1013.7mb - 55f
1:30am 9 16 mph 1013.7mb - 55f
1:20am 11 16 mph 1013.7mb - 55f
1:10am 9 13 mph 1013.5mb - 56f
1:00am 11 18 mph 1013.6mb 75f 56f
12:50am 11 18 mph 1013.7mb - 56f
12:40am 13 18 mph 1013.7mb - 56f
12:30am 11 13 mph 1013.6mb - 56f
12:20am 9 11 mph 1013.5mb - 55f
12:10am 11 18 mph 1013.4mb - 56f
12:00am 13 20 mph 1013.4mb 75f 56f
Thu 05/21 11:50pm 11 16 mph 1013.1mb - 56f
11:40pm 11 16 mph 1013mb - 56f
11:30pm 9 13 mph 1013.1mb - 56f
11:20pm 11 16 mph 1012.9mb - 56f
11:10pm 11 16 mph 1012.8mb - 56f
11:00pm 11 13 mph 1012.8mb 75f 56f
10:50pm 11 16 mph 1012.7mb - 56f
10:40pm 13 18 mph 1012.7mb - 56f
10:30pm 9 13 mph 1012.7mb - 56f
10:20pm 9 18 mph 1012.4mb - 56f
10:10pm 11 16 mph 1012.3mb - 56f
10:00pm 11 13 mph 1012.1mb 75f 56f
9:50pm 9 13 mph 1011.9mb - 56f
9:40pm 9 16 mph 1011.7mb - 56f
9:30pm 11 16 mph 1011.7mb - 56f
9:20pm 11 16 mph 1011.4mb - 56f
9:10pm 9 13 mph 1011.3mb - 56f
9:00pm 9 13 mph 1011.2mb 75f 56f
8:50pm 7 11 mph 1011.1mb - 57f
8:40pm 4 9 mph 1010.7mb - 56f
8:30pm 7 9 mph 1011mb - 57f
8:20pm 7 9 mph 1011.1mb - 57f
8:10pm 7 13 mph 1011.1mb - 57f
8:00pm 9 16 mph 1011.2mb 75f 57f
7:50pm 11 18 mph 1011.5mb - 58f
7:40pm 11 16 mph 1011.3mb - 58f
7:30pm 9 13 mph 1011.3mb - 58f
7:20pm 7 11 mph 1011.1mb - 58f
7:10pm 9 16 mph 1011mb - 58f
7:00pm 9 13 mph 1010.8mb 75f 58f
6:50pm 9 13 mph 1010.6mb - 58f
6:40pm 7 13 mph 1010.4mb - 58f
6:30pm 4 11 mph 1010.2mb - 58f
6:20pm 7 11 mph 1010mb - 58f
6:10pm 7 16 mph 1009.6mb - 58f
6:00pm 9 16 mph 1009.4mb 75f 58f
5:50pm 9 13 mph 1009.5mb - 58f
5:40pm 9 13 mph 1009.3mb - 58f
5:30pm 9 16 mph 1009.2mb - 58f
5:20pm 9 16 mph 1009.3mb - 58f
5:10pm 9 16 mph 1009.5mb - 58f
5:00pm 9 16 mph 1009.7mb 76f 58f
4:50pm 7 16 mph 1009.6mb - 58f
4:40pm 9 16 mph 1010mb - 59f
4:30pm 9 13 mph 1009.7mb - 59f
4:20pm 9 16 mph 1009.7mb - 59f
4:10pm 9 16 mph 1009.7mb - 59f
4:00pm 9 20 mph 1009.2mb 76f 59f
3:50pm 9 16 mph 1009.1mb - 59f
3:40pm 11 18 mph 1009.3mb - 59f
3:30pm 9 16 mph 1009.7mb - 60f
3:20pm 9 16 mph 1009.8mb - 60f
3:10pm 9 13 mph 1009.7mb - 60f
3:00pm 9 16 mph 1009.6mb 76f 60f
2:50pm 9 16 mph 1009.8mb - 61f
2:40pm 11 16 mph 1010mb - 61f
2:30pm 9 13 mph 1010.1mb - 61f
2:20pm 7 13 mph 1010.5mb - 61f
2:10pm 7 11 mph 1010.4mb - 61f
2:00pm 7 9 mph 1010.6mb 76f 61f
1:50pm 7 11 mph 1010.5mb - 61f
1:40pm 9 11 mph 1010.4mb - 61f
1:30pm 7 9 mph 1010.6mb - 61f
1:20pm 7 9 mph 1010.7mb - 60f
1:10pm 4 9 mph 1010.9mb - 60f
1:00pm 7 9 mph 1010.9mb 76f 60f
12:50pm 7 9 mph 1011.3mb - 60f
12:40pm 7 9 mph 1011.3mb - 61f
12:30pm 9 13 mph 1011.8mb - 61f
12:20pm 7 13 mph 1011.4mb - 61f
12:10pm 7 9 mph 1011.1mb - 61f
11:50am 7 11 mph 1011.5mb - 61f
11:40am 7 9 mph 1011.5mb - 62f
11:30am 7 13 mph 1011.5mb - 63f
11:20am 11 13 mph 1011.4mb - 63f
11:10am 11 13 mph 1011.8mb - 63f
11:00am 11 18 mph 1011.7mb 76f 63f
10:50am 9 16 mph 1012mb - 63f
10:40am 13 18 mph 1011.9mb - 63f
10:30am 11 18 mph 1011.8mb - 63f
10:20am 13 18 mph 1011.8mb - 63f
10:10am 11 18 mph 1012.1mb - 63f
10:00am 11 16 mph 1012.3mb 76f 63f
9:50am 9 16 mph 1012.5mb - 63f
9:40am 9 13 mph 1012.6mb - 62f
9:30am 9 13 mph 1012.7mb - 62f
9:20am 9 13 mph 1013.2mb - 63f
9:10am 9 13 mph 1013.4mb - 63f
9:00am 11 16 mph 1013.2mb 76f 63f
8:50am 13 20 mph 1013.1mb - 63f
8:40am 11 18 mph 1013.1mb - 63f
8:30am 11 16 mph 1013.2mb - 63f
8:20am 13 20 mph 1013.1mb - 63f
8:10am 11 18 mph 1013.3mb - 64f
8:00am 11 18 mph 1013.4mb 77f 64f
7:50am 11 18 mph 1013.5mb - 63f
7:40am 11 18 mph 1013.4mb - 64f
7:30am 11 16 mph 1013.6mb - 64f
7:20am 11 16 mph 1013.5mb - 64f
7:10am 9 13 mph 1013.4mb - 64f
7:00am 9 18 mph 1013.3mb 76f 64f
6:50am 11 16 mph 1013.2mb - 64f
6:40am 11 16 mph 1013.1mb - 64f
6:30am 11 18 mph 1013.1mb - 64f
6:20am 11 18 mph 1013.1mb - 64f
6:10am 11 16 mph 1013mb - 64f
6:00am 11 16 mph 1013mb 77f 64f
5:50am 11 16 mph 1012.9mb - 64f
5:40am 13 18 mph 1013mb - 64f
5:30am 13 18 mph 1013mb - 64f
5:20am 11 18 mph 1012.8mb - 64f
5:10am 11 16 mph 1012.9mb - 64f
5:00am 11 13 mph 1013mb 77f 64f
4:50am 11 18 mph 1013mb - 64f
4:40am 11 16 mph 1013.1mb - 65f
4:30am 11 16 mph 1013.1mb - 65f